createdAt,value
2022-11-17T00:00:24.683Z,19.77
2022-11-17T00:03:15.998Z,17.23
2022-11-17T00:06:06.872Z,17.42
2022-11-17T00:08:53.684Z,22.57
2022-11-17T00:11:58.666Z,16.77
2022-11-17T00:14:44.591Z,19.13
2022-11-17T00:17:31.109Z,23.58
2022-11-17T00:20:35.909Z,21.33
2022-11-17T00:23:22.223Z,28.52
2022-11-17T00:26:08.088Z,21.52
2022-11-17T00:28:58.966Z,23.27
2022-11-17T00:32:03.935Z,20.10
2022-11-17T00:34:50.327Z,21.02
2022-11-17T00:37:37.701Z,19.25
2022-11-17T00:40:24.174Z,18.90
2022-11-17T00:43:10.445Z,22.02
2022-11-17T00:45:57.392Z,20.02
2022-11-17T00:48:43.653Z,17.20
2022-11-17T00:51:30.173Z,17.55
2022-11-17T00:54:16.290Z,19.13
2022-11-17T00:57:03.041Z,21.70
2022-11-17T00:59:49.122Z,27.85
2022-11-17T01:02:35.401Z,17.50
2022-11-17T01:05:21.535Z,16.83
2022-11-17T01:08:07.810Z,20.98
2022-11-17T01:10:54.376Z,16.95
2022-11-17T01:13:42.050Z,17.90
2022-11-17T01:16:29.007Z,15.93
2022-11-17T01:19:16.464Z,21.02
2022-11-17T01:22:02.662Z,18.70
2022-11-17T01:24:48.977Z,17.23
2022-11-17T01:27:35.363Z,22.77
2022-11-17T01:30:21.937Z,18.00
2022-11-17T01:33:08.479Z,19.65
2022-11-17T01:35:54.877Z,17.48
2022-11-17T01:38:40.779Z,19.67
2022-11-17T01:41:28.359Z,18.83
2022-11-17T01:44:36.339Z,29.67
2022-11-17T01:47:32.214Z,33.47
2022-11-17T01:50:32.394Z,21.63
2022-11-17T01:53:20.066Z,17.38
2022-11-17T01:56:12.566Z,21.23
2022-11-17T01:59:04.517Z,28.35
2022-11-17T02:01:56.708Z,20.50
2022-11-17T02:04:49.682Z,24.05
2022-11-17T02:07:37.369Z,22.80
2022-11-17T02:10:23.337Z,18.55
2022-11-17T02:13:09.659Z,17.35
2022-11-17T02:15:55.815Z,17.10
2022-11-17T02:18:42.197Z,20.63
2022-11-17T02:22:02.399Z,19.20
2022-11-17T02:25:12.654Z,18.90
2022-11-17T02:28:13.715Z,17.20
2022-11-17T02:31:07.839Z,16.05
2022-11-17T02:34:04.471Z,16.75
2022-11-17T02:36:58.241Z,18.23
2022-11-17T02:40:03.304Z,28.30
2022-11-17T02:43:19.515Z,15.80
2022-11-17T02:46:18.370Z,15.82
2022-11-17T02:49:10.030Z,17.52
2022-11-17T02:51:58.395Z,17.85
2022-11-17T02:54:43.971Z,19.25
2022-11-17T02:57:34.575Z,17.40
2022-11-17T03:00:20.758Z,16.95
2022-11-17T03:03:35.002Z,15.95
2022-11-17T03:06:39.627Z,18.05
2022-11-17T03:09:33.098Z,15.90
2022-11-17T03:12:25.934Z,16.85
2022-11-17T03:15:41.010Z,18.00
2022-11-17T03:18:47.308Z,16.90
2022-11-17T03:21:50.033Z,16.73
2022-11-17T03:24:40.120Z,14.80
2022-11-17T03:27:33.510Z,17.88
2022-11-17T03:30:20.950Z,16.85
2022-11-17T03:33:15.216Z,16.65
2022-11-17T03:36:11.660Z,36.70
2022-11-17T03:39:17.038Z,24.00
2022-11-17T03:42:07.019Z,17.13
2022-11-17T03:44:56.286Z,17.17
2022-11-17T03:47:42.995Z,17.23
2022-11-17T03:50:34.950Z,21.10
2022-11-17T03:53:20.379Z,27.83
2022-11-17T03:56:28.271Z,20.65
2022-11-17T03:59:22.793Z,20.55
2022-11-17T04:02:09.512Z,23.33
2022-11-17T04:05:07.285Z,20.55
2022-11-17T04:07:53.287Z,19.05
2022-11-17T04:10:58.756Z,21.60
2022-11-17T04:14:03.279Z,24.40
2022-11-17T04:16:48.955Z,127.50
2022-11-17T04:19:34.775Z,33.65
2022-11-17T04:22:20.573Z,19.77
2022-11-17T04:25:06.883Z,52.75
2022-11-17T04:28:11.601Z,50.88
2022-11-17T04:30:57.859Z,23.65
2022-11-17T04:33:45.982Z,24.08
2022-11-17T04:36:35.921Z,21.60
2022-11-17T04:39:21.360Z,19.20
2022-11-17T04:42:07.361Z,21.90
2022-11-17T04:44:52.752Z,18.63
2022-11-17T04:47:38.393Z,18.83
2022-11-17T04:50:24.031Z,21.25
2022-11-17T04:53:09.795Z,23.08
2022-11-17T04:55:59.956Z,19.77
2022-11-17T04:58:46.263Z,21.55
2022-11-17T05:01:32.658Z,22.92
2022-11-17T05:04:39.009Z,27.48
2022-11-17T05:07:24.543Z,19.27
2022-11-17T05:10:12.754Z,15.75
2022-11-17T05:13:30.111Z,17.85
2022-11-17T05:16:34.700Z,18.13
2022-11-17T05:19:23.083Z,19.13
2022-11-17T05:22:28.408Z,17.27
2022-11-17T05:25:14.605Z,18.90
2022-11-17T05:28:00.615Z,20.75
2022-11-17T05:30:46.186Z,20.33
2022-11-17T05:33:37.453Z,37.22
2022-11-17T05:36:24.569Z,25.95
2022-11-17T05:39:11.229Z,16.65
2022-11-17T05:41:56.727Z,29.35
2022-11-17T05:44:42.534Z,17.58
2022-11-17T05:47:28.209Z,16.48
2022-11-17T05:50:13.949Z,15.63
2022-11-17T05:52:59.642Z,13.73
2022-11-17T05:55:45.393Z,14.40
2022-11-17T05:58:35.214Z,14.55
2022-11-17T06:01:21.587Z,15.43
2022-11-17T06:04:08.040Z,13.55
2022-11-17T06:06:58.967Z,14.15
2022-11-17T06:09:44.746Z,22.13
2022-11-17T06:12:30.910Z,15.85
2022-11-17T06:15:16.839Z,13.77
2022-11-17T06:18:06.565Z,13.18
2022-11-17T06:20:53.844Z,14.40
2022-11-17T06:23:39.607Z,11.82
2022-11-17T06:26:25.445Z,15.63
2022-11-17T06:29:11.369Z,12.75
2022-11-17T06:31:58.179Z,13.00
2022-11-17T06:34:48.045Z,58.00
2022-11-17T06:37:37.674Z,19.25
2022-11-17T06:40:23.809Z,17.13
2022-11-17T06:43:11.752Z,14.75
2022-11-17T06:45:57.608Z,15.50
2022-11-17T06:48:43.737Z,41.83
2022-11-17T06:51:29.557Z,18.00
2022-11-17T06:54:15.514Z,15.20
2022-11-17T06:57:01.375Z,18.15
2022-11-17T06:59:47.275Z,14.90
2022-11-17T07:02:33.151Z,15.60
2022-11-17T07:05:18.750Z,15.90
2022-11-17T07:08:08.353Z,16.63
2022-11-17T07:10:55.036Z,16.85
2022-11-17T07:13:40.825Z,14.15
2022-11-17T07:16:26.810Z,17.95
2022-11-17T07:19:13.204Z,14.07
2022-11-17T07:21:58.856Z,14.45
2022-11-17T07:24:44.909Z,21.85
2022-11-17T07:27:30.915Z,18.73
2022-11-17T07:30:17.465Z,21.95
2022-11-17T07:43:58.676Z,20.02
2022-11-17T08:03:06.678Z,22.10
2022-11-17T08:11:23.681Z,22.15
2022-11-17T08:25:20.469Z,13.18
2022-11-17T08:28:35.423Z,13.82
2022-11-17T08:31:52.381Z,12.10
2022-11-17T08:35:08.575Z,11.70
2022-11-17T08:38:27.894Z,14.07
2022-11-17T08:41:15.304Z,11.48
2022-11-17T09:05:11.693Z,12.88
2022-11-17T09:08:44.377Z,13.70
2022-11-17T09:11:54.352Z,15.10
2022-11-17T09:15:32.724Z,15.82
2022-11-17T09:18:37.142Z,22.02
2022-11-17T09:21:23.098Z,13.75
2022-11-17T09:24:08.643Z,9.85
2022-11-17T09:26:54.986Z,10.80
2022-11-17T09:29:41.051Z,11.27
2022-11-17T09:32:27.987Z,8.85
2022-11-17T09:35:14.303Z,10.10
2022-11-17T09:38:03.648Z,6.50
2022-11-17T09:40:49.645Z,12.93
2022-11-17T09:43:37.995Z,7.15
2022-11-17T09:46:35.041Z,5.63
2022-11-17T09:49:40.073Z,6.80
2022-11-17T09:52:31.446Z,7.63
2022-11-17T09:55:31.149Z,5.97
2022-11-17T09:58:46.366Z,5.80
2022-11-17T10:01:32.417Z,6.30
2022-11-17T10:04:18.655Z,5.10
2022-11-17T10:07:04.396Z,6.38
2022-11-17T10:09:50.929Z,6.35
2022-11-17T10:12:44.903Z,5.25
2022-11-17T10:15:42.316Z,5.38
2022-11-17T10:18:36.572Z,6.43
2022-11-17T10:21:23.829Z,6.43
2022-11-17T10:24:10.068Z,5.90
2022-11-17T10:26:55.522Z,7.03
2022-11-17T10:29:41.325Z,7.70
2022-11-17T10:32:29.157Z,6.95
2022-11-17T10:35:19.330Z,6.85
2022-11-17T10:38:07.978Z,7.55
2022-11-17T10:40:55.211Z,7.00
2022-11-17T10:43:57.190Z,5.35
2022-11-17T10:47:02.040Z,5.22
2022-11-17T10:50:13.501Z,9.30
2022-11-17T10:53:21.762Z,6.53
2022-11-17T10:56:13.476Z,6.00
2022-11-17T10:59:14.369Z,8.75
2022-11-17T11:02:28.176Z,9.07
2022-11-17T11:05:33.918Z,17.25
2022-11-17T11:08:47.472Z,6.97
2022-11-17T11:11:41.486Z,9.57
2022-11-17T11:14:35.116Z,7.20
2022-11-17T11:17:21.053Z,8.25
2022-11-17T11:20:13.118Z,15.63
2022-11-17T11:23:23.781Z,6.28
2022-11-17T11:26:27.513Z,12.73
2022-11-17T11:29:28.674Z,9.90
2022-11-17T11:35:17.214Z,16.58
2022-11-17T11:38:28.886Z,10.18
2022-11-17T11:41:33.009Z,8.48
2022-11-17T11:44:57.562Z,10.35
2022-11-17T11:47:51.989Z,10.77
2022-11-17T11:50:49.057Z,9.63
2022-11-17T11:54:02.609Z,18.92
2022-11-17T11:56:48.664Z,13.10
2022-11-17T11:59:34.392Z,12.48
2022-11-17T12:02:55.692Z,12.63
2022-11-17T12:08:45.780Z,11.77
2022-11-17T12:11:50.609Z,13.65
2022-11-17T12:14:37.834Z,11.82
2022-11-17T12:17:26.219Z,8.38
2022-11-17T12:20:30.991Z,16.70
2022-11-17T12:23:38.236Z,14.85
2022-11-17T12:26:25.611Z,11.02
2022-11-17T12:29:19.986Z,14.63
2022-11-17T12:32:06.053Z,14.15
2022-11-17T12:35:30.114Z,12.90
2022-11-17T12:38:16.406Z,13.02
2022-11-17T12:41:02.283Z,15.70
2022-11-17T12:43:48.929Z,14.00
2022-11-17T12:46:34.931Z,12.52
2022-11-17T12:49:27.994Z,14.20
2022-11-17T12:52:22.946Z,11.98
2022-11-17T12:55:12.233Z,14.02
2022-11-17T12:58:10.544Z,18.20
2022-11-17T13:01:10.289Z,21.00
2022-11-17T13:04:12.751Z,83.32
2022-11-17T13:07:07.271Z,14.25
2022-11-17T13:09:57.217Z,46.55
2022-11-17T13:12:43.643Z,17.13
2022-11-17T13:15:29.714Z,51.20
2022-11-17T13:18:28.364Z,24.30
2022-11-17T13:21:33.157Z,44.38
2022-11-17T13:24:30.200Z,46.35
2022-11-17T13:27:29.019Z,15.57
2022-11-17T13:30:29.178Z,37.33
2022-11-17T13:33:20.366Z,25.80
2022-11-17T13:39:00.475Z,20.33
2022-11-17T13:41:46.910Z,78.95
2022-11-17T13:44:33.073Z,59.13
2022-11-17T13:47:28.871Z,21.77
2022-11-17T13:50:26.845Z,9.30
2022-11-17T13:53:12.579Z,7.57
2022-11-17T13:55:58.077Z,9.65
2022-11-17T13:58:48.280Z,10.43
2022-11-17T14:01:34.303Z,14.95
2022-11-17T14:04:23.201Z,22.20
2022-11-17T14:07:10.877Z,13.15
2022-11-17T14:10:31.297Z,23.00
2022-11-17T14:13:16.809Z,14.90
2022-11-17T14:16:02.651Z,11.27
2022-11-17T14:18:56.536Z,16.15
2022-11-17T14:22:13.234Z,9.52
2022-11-17T14:25:05.694Z,15.13
2022-11-17T14:27:53.308Z,15.38
2022-11-17T14:30:39.253Z,9.82
2022-11-17T14:33:25.835Z,10.82
2022-11-17T14:36:16.740Z,11.70
2022-11-17T14:39:03.204Z,8.50
2022-11-17T14:41:49.958Z,9.77
2022-11-17T14:44:35.895Z,11.57
2022-11-17T14:47:21.318Z,12.85
2022-11-17T14:50:09.884Z,14.48
2022-11-17T14:52:55.456Z,15.82
2022-11-17T14:55:41.480Z,11.55
2022-11-17T14:58:27.247Z,24.60
2022-11-17T15:01:18.742Z,20.20
2022-11-17T15:07:11.588Z,25.95
2022-11-17T15:09:57.740Z,29.80
2022-11-17T15:12:43.760Z,36.47
2022-11-17T15:15:29.227Z,32.80
2022-11-17T15:18:15.188Z,29.27
2022-11-17T15:21:05.696Z,39.08
2022-11-17T15:23:51.504Z,28.70
2022-11-17T15:26:37.205Z,46.88
2022-11-17T15:29:23.375Z,36.00
2022-11-17T15:32:09.010Z,24.95
2022-11-17T15:34:55.079Z,40.42
2022-11-17T15:37:40.453Z,30.15
2022-11-17T15:40:26.427Z,25.35
2022-11-17T15:43:11.921Z,19.27
2022-11-17T15:46:06.413Z,25.55
2022-11-17T15:48:52.632Z,34.05
2022-11-17T15:51:38.818Z,27.45
2022-11-17T15:54:25.111Z,30.98
2022-11-17T15:57:10.613Z,17.38
2022-11-17T15:59:56.390Z,30.48
2022-11-17T16:02:42.347Z,13.07
2022-11-17T16:05:28.313Z,15.90
2022-11-17T16:08:14.130Z,31.00
2022-11-17T16:10:59.512Z,19.63
2022-11-17T16:13:45.652Z,30.63
2022-11-17T16:16:33.945Z,24.73
2022-11-17T16:19:20.076Z,35.00
2022-11-17T16:22:05.659Z,22.55
2022-11-17T16:24:51.324Z,49.83
2022-11-17T16:27:37.037Z,23.55
2022-11-17T16:30:29.256Z,21.80
2022-11-17T16:33:17.559Z,17.88
2022-11-17T16:36:07.132Z,25.80
2022-11-17T16:39:02.124Z,21.45
2022-11-17T16:42:00.243Z,22.60
2022-11-17T16:44:46.007Z,26.67
2022-11-17T16:47:32.310Z,26.50
2022-11-17T16:50:17.828Z,47.67
2022-11-17T16:53:04.935Z,21.95
2022-11-17T16:55:50.613Z,41.63
2022-11-17T16:58:36.787Z,37.70
2022-11-17T17:01:26.257Z,29.23
2022-11-17T17:04:12.595Z,30.23
2022-11-17T17:06:58.437Z,40.05
2022-11-17T17:09:44.040Z,35.85
2022-11-17T17:12:29.410Z,39.78
2022-11-17T17:15:15.375Z,62.17
2022-11-17T17:18:03.449Z,28.60
2022-11-17T17:20:52.677Z,24.58
2022-11-17T17:23:38.231Z,24.20
2022-11-17T17:26:26.450Z,25.98
2022-11-17T17:29:12.721Z,35.60
2022-11-17T17:31:58.428Z,34.58
2022-11-17T17:34:44.029Z,64.88
2022-11-17T17:37:32.298Z,35.97
2022-11-17T17:40:19.243Z,48.78
2022-11-17T17:43:12.075Z,67.70
2022-11-17T17:46:15.863Z,81.28
2022-11-17T17:49:02.234Z,60.70
2022-11-17T17:51:47.980Z,72.28
2022-11-17T17:54:33.965Z,69.28
2022-11-17T17:57:20.056Z,45.45
2022-11-17T18:00:06.717Z,49.13
2022-11-17T18:02:52.853Z,47.95
2022-11-17T18:05:39.032Z,47.63
2022-11-17T18:08:24.483Z,67.65
2022-11-17T18:11:13.157Z,65.28
2022-11-17T18:14:00.726Z,59.92
2022-11-17T18:16:46.333Z,58.72
2022-11-17T18:19:33.454Z,59.70
2022-11-17T18:22:19.630Z,50.53
2022-11-17T18:25:09.179Z,34.67
2022-11-17T18:27:57.096Z,30.70
2022-11-17T18:30:42.579Z,78.38
2022-11-17T18:33:29.767Z,34.05
2022-11-17T18:36:15.224Z,34.30
2022-11-17T18:39:01.051Z,36.72
2022-11-17T18:41:47.034Z,41.85
2022-11-17T18:44:33.293Z,36.08
2022-11-17T18:47:18.804Z,35.75
2022-11-17T18:50:04.865Z,31.00
2022-11-17T18:52:50.474Z,33.78
2022-11-17T18:55:36.575Z,37.40
2022-11-17T18:58:22.199Z,41.15
2022-11-17T19:01:14.102Z,73.10
2022-11-17T19:04:01.019Z,49.50
2022-11-17T19:06:46.812Z,46.67
2022-11-17T19:09:32.131Z,44.25
2022-11-17T19:12:19.032Z,32.63
2022-11-17T19:15:05.470Z,35.08
2022-11-17T19:17:51.554Z,38.95
2022-11-17T19:20:36.993Z,91.05
2022-11-17T19:23:22.946Z,61.90
2022-11-17T19:26:10.960Z,43.38
2022-11-17T19:28:58.394Z,37.17
2022-11-17T19:31:45.203Z,44.47
2022-11-17T19:34:31.684Z,36.08
2022-11-17T19:37:17.700Z,30.00
2022-11-17T19:40:03.442Z,35.50
2022-11-17T19:42:50.135Z,30.65
2022-11-17T19:45:35.904Z,34.22
2022-11-17T19:48:21.205Z,32.38
2022-11-17T19:51:20.464Z,41.08
2022-11-17T19:54:08.436Z,39.20
2022-11-17T19:56:54.645Z,45.30
2022-11-17T19:59:40.625Z,47.42
2022-11-17T20:02:26.577Z,42.55
2022-11-17T20:05:12.139Z,35.10
2022-11-17T20:07:57.900Z,43.78
2022-11-17T20:10:43.474Z,42.80
2022-11-17T20:13:31.399Z,43.72
2022-11-17T20:16:22.176Z,36.90
2022-11-17T20:19:09.001Z,44.40
2022-11-17T20:21:54.690Z,37.47
2022-11-17T20:24:40.867Z,37.13
2022-11-17T20:27:26.452Z,40.58
2022-11-17T20:30:15.347Z,47.42
2022-11-17T20:33:01.664Z,37.90
2022-11-17T20:35:47.305Z,33.63
2022-11-17T20:38:33.160Z,37.47
2022-11-17T20:41:20.993Z,34.17
2022-11-17T20:44:23.628Z,41.95
2022-11-17T20:47:09.757Z,33.35
2022-11-17T20:49:55.713Z,38.00
2022-11-17T20:52:41.444Z,38.38
2022-11-17T20:55:27.054Z,43.08
2022-11-17T20:58:13.409Z,34.78
2022-11-17T21:00:59.585Z,38.58
2022-11-17T21:03:45.819Z,41.05
2022-11-17T21:06:31.849Z,34.72
2022-11-17T21:09:18.367Z,38.50
2022-11-17T21:12:04.519Z,37.85
2022-11-17T21:14:50.337Z,39.03
2022-11-17T21:17:54.723Z,33.55
2022-11-17T21:20:42.835Z,36.75
2022-11-17T21:23:28.463Z,137.52
2022-11-17T21:26:19.356Z,66.28
2022-11-17T21:29:06.918Z,38.03
2022-11-17T21:31:52.873Z,36.47
2022-11-17T21:34:38.151Z,40.90
2022-11-17T21:37:24.408Z,40.80
2022-11-17T21:40:10.047Z,36.55
2022-11-17T21:42:56.124Z,34.60
2022-11-17T21:45:42.184Z,40.88
2022-11-17T21:48:28.440Z,41.88
2022-11-17T21:51:25.008Z,42.50
2022-11-17T21:54:10.879Z,128.35
2022-11-17T21:56:56.470Z,50.72
2022-11-17T21:59:42.539Z,64.72
2022-11-17T22:02:28.098Z,53.70
2022-11-17T22:05:14.003Z,48.63
2022-11-17T22:07:59.892Z,42.95
2022-11-17T22:10:45.686Z,48.67
2022-11-17T22:13:31.103Z,39.83
2022-11-17T22:16:16.811Z,41.78
2022-11-17T22:19:03.085Z,40.78
2022-11-17T22:21:51.206Z,44.88
2022-11-17T22:24:39.543Z,46.80
2022-11-17T22:27:28.260Z,53.08
2022-11-17T22:30:15.048Z,147.57
2022-11-17T22:33:01.286Z,115.22
2022-11-17T22:35:46.942Z,91.15
2022-11-17T22:38:33.090Z,48.63
2022-11-17T22:41:21.304Z,54.47
2022-11-17T22:44:07.499Z,54.40
2022-11-17T22:46:53.914Z,66.75
2022-11-17T22:49:40.519Z,63.63
2022-11-17T22:52:26.403Z,58.05
2022-11-17T22:55:13.176Z,50.90
2022-11-17T22:57:59.140Z,60.40
2022-11-17T23:00:46.078Z,63.75
2022-11-17T23:03:32.761Z,58.10
2022-11-17T23:06:19.068Z,47.17
2022-11-17T23:09:04.671Z,55.35
2022-11-17T23:11:50.945Z,45.25
2022-11-17T23:14:36.386Z,47.90
2022-11-17T23:17:22.409Z,43.63
2022-11-17T23:20:10.110Z,41.40
2022-11-17T23:22:56.071Z,52.08
2022-11-17T23:25:42.006Z,54.20
2022-11-17T23:28:27.761Z,49.88
2022-11-17T23:31:15.148Z,61.35
2022-11-17T23:34:01.950Z,54.88
2022-11-17T23:36:47.550Z,56.17
2022-11-17T23:39:33.541Z,49.40
2022-11-17T23:42:19.015Z,42.33
2022-11-17T23:45:05.692Z,41.10
2022-11-17T23:47:51.566Z,31.90
2022-11-17T23:50:38.007Z,35.58
2022-11-17T23:53:23.990Z,32.47
2022-11-17T23:56:11.107Z,40.38
2022-11-17T23:58:56.695Z,87.63
